SBMS Airport Information

Runway Information
Runway 5 Length 6562 ft width 98 ft
Elevation 0 ft Threshold 0 ft Heading 0
Runway 23 Length 6562 ft Width 98 ft
Elevation 0 ft Threshold 0 ft Heading 0
Airport Frequencies
Type AFIS Name MOSSORO RD Frequency 125.9 MHZ
Airport Navaids
Type VOR-DME Name Mossoro Frequency 112400 KHZ
Type NDB Name Mossoro Frequency 275 KHZ
Airport Weather Information & NOTAM
ADDS - METARS form results

(1326 UTC 23 February 2019)
Data provider http://aviationweather.gov/metar/data/
 
METAR text: SBMS 231300Z 12006KT 9999 BKN025 34/26 Q1012
Conditions at: SBMS (MOSSORO , BR) observed 1300 UTC 23 February 2019
Temperature: 34.0°C (93°F)
Dewpoint: 26.0°C (79°F) [RH = 63%]
Pressure (altimeter): 29.88 inches Hg (1012.0 mb)
Winds: from the ESE (120 degrees) at 7 MPH (6 knots; 3.1 m/s)
Visibility: 6 or more miles (10+ km)
Ceiling: 2500 feet AGL
Clouds: broken clouds at 2500 feet AGL
Weather: no significant weather observed at this time